Time;durP1;ratioP1;P1;durP2;ratioP2;P2;SDS_P1;SDS_P2;PMS_P1;PMS_P2;Temp;Humidity;BMP_temperature;BMP_pressure;BME280_temperature;BME280_humidity;BME280_pressure;Samples;Min_cycle;Max_cycle;Signal;HPM_P1;HPM_P2
2023/03/29 00:00:13;;;;;;;9.35;5.45;;;3.80;99.90;;;;;;6247536;23;20054;-88
2023/03/29 00:03:02;;;;;;;10.55;5.35;;;3.90;99.90;;;;;;6253540;23;20134;-88
2023/03/29 00:05:56;;;;;;;8.52;5.18;;;3.80;99.90;;;;;;6234912;23;20020;-88
2023/03/29 00:08:46;;;;;;;9.32;5.10;;;3.80;1.00;;;;;;6250957;23;20054;-86
2023/03/29 00:11:33;;;;;;;7.95;5.63;;;3.80;1.00;;;;;;6243925;23;20435;-87
2023/03/29 00:14:20;;;;;;;9.07;5.45;;;3.80;1.00;;;;;;6222242;23;20439;-87
2023/03/29 00:17:11;;;;;;;7.38;5.50;;;3.90;1.00;;;;;;6245441;23;20028;-87
2023/03/29 00:19:59;;;;;;;10.88;5.45;;;3.80;1.00;;;;;;6245948;23;20331;-86
2023/03/29 00:22:49;;;;;;;7.72;5.50;;;3.80;16.00;;;;;;6246360;23;20331;-87
2023/03/29 00:25:36;;;;;;;12.73;5.38;;;3.90;24.50;;;;;;6223829;23;20020;-86
2023/03/29 00:28:27;;;;;;;11.77;6.18;;;3.90;17.10;;;;;;6221834;23;20034;-86
2023/03/29 00:31:17;;;;;;;18.48;6.00;;;3.90;33.80;;;;;;6222507;23;20039;-86
2023/03/29 00:34:06;;;;;;;14.60;5.90;;;3.80;50.00;;;;;;6224416;23;20024;-87
2023/03/29 00:36:56;;;;;;;11.10;6.50;;;3.90;76.60;;;;;;6226466;22;20032;-87
2023/03/29 00:39:45;;;;;;;13.60;6.88;;;3.80;82.80;;;;;;6246381;23;20032;-86
2023/03/29 00:42:32;;;;;;;9.60;5.60;;;3.80;83.90;;;;;;6245886;23;20095;-87
2023/03/29 00:45:29;;;;;;;9.38;5.90;;;3.80;74.80;;;;;;6247992;22;20032;-87
2023/03/29 00:48:26;;;;;;;10.98;6.30;;;3.80;89.80;;;;;;6223327;23;20040;-88
2023/03/29 00:51:17;;;;;;;8.98;5.68;;;3.90;99.90;;;;;;6245856;23;20028;-86
2023/03/29 00:54:13;;;;;;;8.27;5.30;;;3.80;98.10;;;;;;6245431;23;20451;-87
2023/03/29 00:57:02;;;;;;;9.35;5.60;;;3.80;47.90;;;;;;6244888;23;20043;-86
2023/03/29 00:59:51;;;;;;;7.30;5.53;;;3.80;99.90;;;;;;6223991;23;20056;-86
2023/03/29 01:02:41;;;;;;;9.13;5.45;;;3.80;99.90;;;;;;6245213;23;20082;-86
2023/03/29 01:05:36;;;;;;;8.18;5.13;;;3.90;99.90;;;;;;6245335;23;20031;-86
2023/03/29 01:08:28;;;;;;;8.68;6.20;;;3.80;99.90;;;;;;6243904;23;20438;-85
2023/03/29 01:11:42;;;;;;;13.27;6.68;;;3.80;99.90;;;;;;6244141;23;20031;-86
2023/03/29 01:14:41;;;;;;;10.85;5.97;;;3.80;99.90;;;;;;6224766;23;20024;-87
2023/03/29 01:17:30;;;;;;;10.38;5.82;;;3.80;99.90;;;;;;6244053;23;20056;-87
2023/03/29 01:20:35;;;;;;;14.07;4.63;;;3.80;99.90;;;;;;6245112;23;20035;-87
2023/03/29 01:23:46;;;;;;;11.38;6.25;;;3.80;99.90;;;;;;6225476;23;20024;-87
2023/03/29 01:27:02;;;;;;;10.93;6.57;;;3.70;99.90;;;;;;6252561;23;20026;-87
2023/03/29 01:29:59;;;;;;;11.50;6.05;;;3.70;99.90;;;;;;6221937;23;20070;-86
2023/03/29 01:32:57;;;;;;;8.90;5.22;;;3.70;99.90;;;;;;6244366;23;20020;-87
2023/03/29 01:36:04;;;;;;;10.27;5.80;;;3.70;99.90;;;;;;6245928;23;20371;-86
2023/03/29 01:39:02;;;;;;;12.02;6.40;;;3.70;99.90;;;;;;6223484;23;20552;-86
2023/03/29 01:42:04;;;;;;;10.85;6.20;;;3.70;99.90;;;;;;6245072;23;20040;-86
2023/03/29 01:45:17;;;;;;;8.20;4.97;;;3.70;99.90;;;;;;6246375;23;20031;-86
2023/03/29 01:48:20;;;;;;;;;;;3.70;99.90;;;;;;6231716;23;20056;-86
2023/03/29 01:51:29;;;;;;;14.00;6.50;;;3.80;99.90;;;;;;6253951;23;19926;-87
2023/03/29 01:54:34;;;;;;;10.43;6.22;;;3.80;99.90;;;;;;6252751;23;20059;-86
2023/03/29 01:57:24;;;;;;;8.75;5.70;;;3.80;99.90;;;;;;6254182;23;20118;-85
2023/03/29 02:00:21;;;;;;;10.15;6.03;;;3.80;99.90;;;;;;6253773;23;20020;-85
2023/03/29 02:03:09;;;;;;;8.65;5.88;;;3.80;89.70;;;;;;6249603;23;20024;-85
2023/03/29 02:05:58;;;;;;;7.80;5.28;;;3.80;1.00;;;;;;6251391;22;20024;-87
2023/03/29 02:08:46;;;;;;;9.85;5.38;;;3.80;1.00;;;;;;6249367;23;20024;-85
2023/03/29 02:11:35;;;;;;;7.57;4.78;;;3.90;1.00;;;;;;6248612;23;20055;-86
2023/03/29 02:14:24;;;;;;;8.45;3.92;;;3.90;99.90;;;;;;6247691;23;20024;-84
2023/03/29 02:17:18;;;;;;;7.75;4.70;;;3.90;1.00;;;;;;6250029;23;20102;-88
2023/03/29 02:20:17;;;;;;;5.57;3.92;;;3.90;99.90;;;;;;6224506;23;20024;-88
2023/03/29 02:23:26;;;;;;;6.88;3.85;;;4.00;1.00;;;;;;6245860;23;20024;-87
2023/03/29 02:26:13;;;;;;;9.38;3.83;;;4.10;1.00;;;;;;6244210;23;20020;-85
2023/03/29 02:29:02;;;;;;;4.72;3.70;;;4.20;1.00;;;;;;6243759;23;20343;-85
2023/03/29 02:31:57;;;;;;;6.65;3.33;;;4.30;99.90;;;;;;6242890;23;20107;-84
2023/03/29 02:34:53;;;;;;;6.05;3.28;;;4.60;99.90;;;;;;6244729;23;20090;-83
2023/03/29 02:37:50;;;;;;;4.03;3.22;;;4.80;99.90;;;;;;6242283;23;20086;-85
2023/03/29 02:40:41;;;;;;;3.78;2.50;;;5.20;1.00;;;;;;6243082;23;20644;-84
2023/03/29 02:43:28;;;;;;;6.20;3.03;;;5.40;99.90;;;;;;6244915;23;20020;-83
2023/03/29 02:46:17;;;;;;;3.13;2.80;;;5.50;1.00;;;;;;6222396;23;20031;-85
2023/03/29 02:49:05;;;;;;;4.93;2.65;;;5.60;99.90;;;;;;6246876;23;20024;-84
2023/03/29 02:51:58;;;;;;;8.75;2.78;;;5.70;99.90;;;;;;6223344;23;20028;-84
2023/03/29 02:54:49;;;;;;;8.48;2.80;;;5.70;99.90;;;;;;6248029;22;20038;-83
2023/03/29 02:57:38;;;;;;;5.93;2.55;;;5.70;99.90;;;;;;6224205;23;20028;-85
2023/03/29 03:00:28;;;;;;;5.13;2.78;;;5.80;58.70;;;;;;6245945;23;20032;-85
2023/03/29 03:03:18;;;;;;;4.95;2.58;;;5.80;22.20;;;;;;6243646;23;20020;-83
2023/03/29 03:06:05;;;;;;;3.75;2.47;;;5.80;1.00;;;;;;6247843;23;20308;-84
2023/03/29 03:08:55;;;;;;;2.80;2.17;;;5.80;1.00;;;;;;6246417;23;20024;-84
2023/03/29 03:11:43;;;;;;;3.00;2.33;;;5.90;1.00;;;;;;6228515;23;20024;-85
2023/03/29 03:14:30;;;;;;;4.28;2.45;;;5.80;1.00;;;;;;6245007;23;20055;-85
2023/03/29 03:17:21;;;;;;;5.07;2.10;;;5.80;1.00;;;;;;6225907;23;20028;-85
2023/03/29 03:20:13;;;;;;;2.75;2.10;;;5.80;1.00;;;;;;6245998;23;20099;-84
2023/03/29 03:23:02;;;;;;;5.35;2.40;;;5.90;1.00;;;;;;6246267;23;20024;-84
2023/03/29 03:25:51;;;;;;;2.30;2.10;;;5.90;1.00;;;;;;6223251;23;20028;-85
2023/03/29 03:28:40;;;;;;;2.53;2.08;;;6.00;1.00;;;;;;6245367;23;20111;-85
2023/03/29 03:31:33;;;;;;;2.83;2.00;;;6.00;1.00;;;;;;6246486;23;20340;-85
2023/03/29 03:34:21;;;;;;;3.90;2.38;;;6.00;1.00;;;;;;6244889;23;20039;-84
2023/03/29 03:37:10;;;;;;;3.15;2.20;;;6.10;1.00;;;;;;6243603;23;20110;-84
2023/03/29 03:39:59;;;;;;;2.15;1.95;;;6.10;1.00;;;;;;6224601;23;20028;-84
2023/03/29 03:42:46;;;;;;;2.63;1.98;;;6.10;1.00;;;;;;6246760;23;20024;-86
2023/03/29 03:45:34;;;;;;;4.07;2.42;;;6.10;99.90;;;;;;6244597;23;20024;-87
2023/03/29 03:48:22;;;;;;;2.78;2.13;;;6.10;99.90;;;;;;6223655;23;20039;-86
2023/03/29 03:51:09;;;;;;;3.03;1.92;;;6.10;99.90;;;;;;6244742;23;20040;-87
2023/03/29 03:53:57;;;;;;;2.90;2.22;;;6.20;99.90;;;;;;6247467;23;20039;-84
2023/03/29 03:56:44;;;;;;;2.97;2.00;;;6.10;99.90;;;;;;6247083;23;20031;-85
2023/03/29 03:59:31;;;;;;;5.78;1.95;;;6.10;99.90;;;;;;6247588;23;20133;-87
2023/03/29 04:02:19;;;;;;;2.15;1.90;;;6.20;99.90;;;;;;6244539;23;20443;-86
2023/03/29 04:05:07;;;;;;;5.72;2.17;;;6.20;99.90;;;;;;6244682;23;20016;-87
2023/03/29 04:07:54;;;;;;;2.53;1.80;;;6.20;99.90;;;;;;6223813;23;20025;-85
2023/03/29 04:10:50;;;;;;;7.20;2.25;;;6.20;99.90;;;;;;6245407;23;20028;-84
2023/03/29 04:13:37;;;;;;;3.33;1.80;;;6.20;99.90;;;;;;6224784;23;20407;-86
2023/03/29 04:16:25;;;;;;;6.13;2.00;;;6.20;99.90;;;;;;6245230;23;20032;-85
2023/03/29 04:19:13;;;;;;;4.22;1.90;;;6.10;99.90;;;;;;6244088;23;20027;-86
2023/03/29 04:22:00;;;;;;;4.68;2.35;;;6.10;99.90;;;;;;6243460;23;20113;-84
2023/03/29 04:24:47;;;;;;;2.10;1.83;;;6.10;99.90;;;;;;6246226;23;20028;-85
2023/03/29 04:27:35;;;;;;;3.25;1.80;;;6.10;99.90;;;;;;6224934;23;20024;-86
2023/03/29 04:30:22;;;;;;;4.90;2.00;;;6.10;99.90;;;;;;6225167;23;20111;-86
2023/03/29 04:33:10;;;;;;;2.28;1.83;;;6.00;99.90;;;;;;6244546;23;20094;-86
2023/03/29 04:35:57;;;;;;;5.35;2.00;;;6.00;99.90;;;;;;6248184;23;20024;-86
2023/03/29 04:38:51;;;;;;;3.70;2.00;;;6.00;99.90;;;;;;6243039;23;20028;-85
2023/03/29 04:41:38;;;;;;;3.55;1.90;;;6.10;99.90;;;;;;6222661;23;20032;-84
2023/03/29 04:44:27;;;;;;;2.65;1.58;;;6.10;99.90;;;;;;6244731;23;20034;-84
2023/03/29 04:47:18;;;;;;;2.22;1.58;;;6.00;99.90;;;;;;6243997;23;20027;-83
2023/03/29 04:50:07;;;;;;;4.05;1.73;;;6.00;99.90;;;;;;6244659;23;20135;-84
2023/03/29 04:52:58;;;;;;;3.45;2.00;;;6.10;99.90;;;;;;6220855;23;20028;-83
2023/03/29 04:55:46;;;;;;;3.80;1.92;;;6.10;99.90;;;;;;6243721;23;20023;-85
2023/03/29 04:58:33;;;;;;;3.70;2.03;;;6.10;99.90;;;;;;6244851;23;20032;-86
2023/03/29 05:01:21;;;;;;;3.35;1.75;;;6.10;99.90;;;;;;6244921;23;20238;-85
2023/03/29 05:04:10;;;;;;;7.72;2.45;;;6.10;99.90;;;;;;6245974;23;20036;-85
2023/03/29 05:07:00;;;;;;;4.78;2.20;;;6.10;99.90;;;;;;6245422;23;20024;-85
2023/03/29 05:09:47;;;;;;;2.72;2.40;;;6.10;99.90;;;;;;6244897;23;20024;-84
2023/03/29 05:12:35;;;;;;;4.53;1.92;;;6.00;99.90;;;;;;6243465;23;20035;-84
2023/03/29 05:15:22;;;;;;;8.32;2.10;;;6.00;99.90;;;;;;6244262;23;20042;-84
2023/03/29 05:18:12;;;;;;;2.30;2.05;;;6.00;99.90;;;;;;6219696;23;20050;-87
2023/03/29 05:20:59;;;;;;;2.40;1.75;;;6.00;99.90;;;;;;6245440;23;20150;-88
2023/03/29 05:23:47;;;;;;;3.53;1.77;;;6.10;99.90;;;;;;6203268;23;20028;-87
2023/03/29 05:26:35;;;;;;;3.80;2.03;;;6.20;99.90;;;;;;6245699;23;20024;-86
2023/03/29 05:29:22;;;;;;;2.42;1.88;;;6.30;99.90;;;;;;6221996;23;20021;-88
2023/03/29 05:32:10;;;;;;;3.22;2.10;;;6.50;99.90;;;;;;6245059;23;20478;-88
2023/03/29 05:34:57;;;;;;;3.30;1.83;;;6.60;99.90;;;;;;6244041;23;20052;-87
2023/03/29 05:37:46;;;;;;;4.22;1.98;;;6.60;99.90;;;;;;6247556;23;20078;-89
2023/03/29 05:40:36;;;;;;;7.25;1.98;;;6.70;99.90;;;;;;6245705;23;20036;-88
2023/03/29 05:43:23;;;;;;;2.95;1.95;;;6.80;99.90;;;;;;6221725;23;20019;-88
2023/03/29 05:46:17;;;;;;;7.43;2.63;;;6.90;99.90;;;;;;6247026;23;20020;-86
2023/03/29 05:49:05;;;;;;;2.50;2.00;;;7.00;99.90;;;;;;6254102;23;20066;-85
2023/03/29 05:51:55;;;;;;;3.60;2.20;;;7.10;99.90;;;;;;6247701;23;20097;-85
2023/03/29 05:54:43;;;;;;;3.28;2.00;;;7.10;99.90;;;;;;6223980;23;20024;-86
2023/03/29 05:57:30;;;;;;;3.75;1.83;;;7.20;99.90;;;;;;6223651;23;20040;-87
2023/03/29 06:00:20;;;;;;;5.22;1.60;;;7.30;99.90;;;;;;6244069;23;20416;-89
2023/03/29 06:03:18;;;;;;;6.07;2.10;;;7.30;99.90;;;;;;6247008;23;20024;-90
2023/03/29 06:06:26;;;;;;;2.88;1.58;;;7.40;99.90;;;;;;6157399;23;20065;-89
2023/03/29 06:09:14;;;;;;;2.47;2.00;;;7.50;99.90;;;;;;6140066;23;20152;-87
2023/03/29 06:12:07;;;;;;;4.97;1.80;;;7.50;99.90;;;;;;6166206;23;20113;-89
2023/03/29 06:14:57;;;;;;;3.38;1.85;;;7.50;99.90;;;;;;6164634;23;20055;-90
2023/03/29 06:17:44;;;;;;;6.72;2.00;;;7.60;99.90;;;;;;6168446;23;20045;-90
2023/03/29 06:20:32;;;;;;;4.15;2.20;;;7.70;99.90;;;;;;6171281;23;20061;-87
2023/03/29 06:23:22;;;;;;;3.22;2.05;;;7.80;99.90;;;;;;6160457;23;20014;-88
2023/03/29 06:26:11;;;;;;;4.22;1.70;;;7.90;99.90;;;;;;6244085;23;20990;-90
2023/03/29 06:29:03;;;;;;;5.65;2.53;;;8.00;99.90;;;;;;6251251;22;20049;-87
2023/03/29 06:31:52;;;;;;;4.22;1.80;;;8.00;99.90;;;;;;6273872;22;20016;-86
2023/03/29 06:34:36;;;;;;;3.17;1.95;;;8.00;99.90;;;;;;6267742;22;20093;-84
2023/03/29 06:37:26;;;;;;;5.07;2.28;;;8.00;99.90;;;;;;6250978;23;20055;-84
2023/03/29 06:40:16;;;;;;;3.85;2.10;;;8.00;99.90;;;;;;6272521;22;20015;-87
2023/03/29 06:43:04;;;;;;;5.55;1.73;;;7.90;99.90;;;;;;6251246;22;20036;-87
2023/03/29 06:45:53;;;;;;;4.40;1.70;;;7.90;99.90;;;;;;6273523;22;20011;-86
2023/03/29 06:48:40;;;;;;;2.22;1.77;;;7.80;99.90;;;;;;6240348;23;20034;-90
2023/03/29 06:51:30;;;;;;;4.32;1.73;;;7.80;99.90;;;;;;6260099;23;20386;-86
2023/03/29 06:54:17;;;;;;;9.38;2.50;;;7.80;99.90;;;;;;6255824;23;20039;-86
2023/03/29 06:57:04;;;;;;;3.88;1.80;;;7.80;99.90;;;;;;6238907;23;20024;-89
2023/03/29 06:59:52;;;;;;;4.00;2.00;;;7.80;99.90;;;;;;6237450;23;20024;-89
2023/03/29 07:02:42;;;;;;;4.35;2.20;;;7.90;99.90;;;;;;6240471;23;20020;-86
2023/03/29 07:05:31;;;;;;;4.70;2.45;;;7.90;99.90;;;;;;6239847;23;20108;-87
2023/03/29 07:08:21;;;;;;;4.00;2.20;;;8.00;99.90;;;;;;6261310;23;20024;-88
2023/03/29 07:11:13;;;;;;;5.20;1.88;;;8.10;99.90;;;;;;6244775;23;20051;-89
2023/03/29 07:14:01;;;;;;;6.50;2.72;;;8.20;99.90;;;;;;6244196;23;20054;-89
2023/03/29 07:16:50;;;;;;;5.30;2.30;;;8.30;99.90;;;;;;6262332;23;20082;-90
2023/03/29 07:19:38;;;;;;;2.85;2.25;;;8.40;99.90;;;;;;6261994;23;20338;-88
2023/03/29 07:22:26;;;;;;;6.68;2.30;;;8.60;99.90;;;;;;6236712;23;20024;-86
2023/03/29 07:25:16;;;;;;;3.42;1.60;;;8.70;99.90;;;;;;6228735;23;20024;-88
2023/03/29 07:28:05;;;;;;;2.97;1.65;;;8.90;99.90;;;;;;6252847;23;20020;-86
2023/03/29 07:34:30;;;;;;;7.57;2.20;;;9.20;99.90;;;;;;6265576;23;20027;-89
2023/03/29 07:37:23;;;;;;;3.63;2.22;;;9.20;99.90;;;;;;6252073;23;20046;-90
2023/03/29 07:40:17;;;;;;;3.50;2.42;;;9.00;99.90;;;;;;6231996;23;20043;-91
2023/03/29 07:43:08;;;;;;;2.72;1.75;;;8.90;99.90;;;;;;6228686;23;20020;-90
2023/03/29 07:45:59;;;;;;;3.55;1.75;;;8.90;99.90;;;;;;6250664;23;20388;-89
2023/03/29 07:48:50;;;;;;;3.97;1.95;;;8.90;99.90;;;;;;6233602;23;20024;-87
2023/03/29 07:51:38;;;;;;;2.83;1.52;;;8.90;99.90;;;;;;6242505;23;20012;-86
2023/03/29 07:54:26;;;;;;;4.05;2.10;;;9.00;99.90;;;;;;6241532;23;20024;-87
2023/03/29 07:57:13;;;;;;;3.65;1.85;;;9.00;99.90;;;;;;6237036;23;20035;-90
2023/03/29 08:00:14;;;;;;;3.70;2.25;;;9.10;99.90;;;;;;6230476;23;20359;-87
2023/03/29 08:03:06;;;;;;;5.25;2.17;;;9.20;99.90;;;;;;6225738;23;20035;-87
2023/03/29 08:05:54;;;;;;;2.45;1.52;;;9.20;99.90;;;;;;6223688;23;20047;-88
2023/03/29 08:08:41;;;;;;;5.32;3.08;;;9.20;99.90;;;;;;6227123;23;20404;-87
2023/03/29 08:11:29;;;;;;;7.30;2.42;;;9.40;99.90;;;;;;6248316;23;20024;-85
2023/03/29 08:14:16;;;;;;;3.58;1.80;;;9.40;99.90;;;;;;6227698;23;20035;-87
2023/03/29 08:17:05;;;;;;;13.45;4.10;;;9.50;99.90;;;;;;6224473;23;20035;-86
2023/03/29 08:19:55;;;;;;;6.60;2.90;;;9.60;99.90;;;;;;6247132;23;20058;-87
2023/03/29 08:22:43;;;;;;;4.55;2.92;;;9.60;99.90;;;;;;6249339;23;20570;-89
2023/03/29 08:25:30;;;;;;;4.30;2.25;;;9.60;99.90;;;;;;6227484;23;20024;-90
2023/03/29 08:28:19;;;;;;;3.78;1.90;;;9.60;99.90;;;;;;6248296;23;20055;-89
2023/03/29 08:31:12;;;;;;;2.17;1.77;;;9.70;99.90;;;;;;6249338;22;20028;-88
2023/03/29 08:34:08;;;;;;;3.08;1.73;;;9.70;99.90;;;;;;6247225;23;20135;-88
2023/03/29 08:36:57;;;;;;;5.72;1.90;;;9.70;99.90;;;;;;6247281;23;20110;-88
2023/03/29 08:39:47;;;;;;;5.35;1.85;;;9.70;99.90;;;;;;6252890;23;20028;-88
2023/03/29 08:42:55;;;;;;;1.98;1.65;;;9.90;99.90;;;;;;6252157;23;20297;-89
2023/03/29 08:46:02;;;;;;;4.95;1.95;;;9.90;99.90;;;;;;6255316;22;20024;-85
2023/03/29 08:49:03;;;;;;;6.97;1.95;;;10.00;99.90;;;;;;6229800;23;20097;-88
2023/03/29 08:51:57;;;;;;;2.30;2.00;;;9.90;99.90;;;;;;6251651;23;20122;-87
2023/03/29 08:54:49;;;;;;;2.70;1.77;;;9.90;99.90;;;;;;6230610;23;20024;-88
2023/03/29 08:57:50;;;;;;;2.72;1.85;;;9.90;99.90;;;;;;6251367;23;20028;-87
2023/03/29 09:00:49;;;;;;;3.85;2.10;;;10.10;99.90;;;;;;6253923;23;20051;-88
2023/03/29 09:04:17;;;;;;;5.05;2.15;;;10.10;99.90;;;;;;6254940;23;20032;-88
2023/03/29 09:07:09;;;;;;;4.18;2.25;;;10.10;99.90;;;;;;6233789;23;20020;-92
2023/03/29 09:09:57;;;;;;;;;;;10.30;99.90;;;;;;6256804;23;20020;-90
2023/03/29 09:13:13;;;;;;;4.88;1.80;;;10.40;99.90;;;;;;6232755;23;20022;-90
2023/03/29 09:16:06;;;;;;;2.55;1.70;;;10.30;99.90;;;;;;6231605;23;20028;-88
2023/03/29 09:19:16;;;;;;;;;;;10.20;99.90;;;;;;6252583;23;20047;-87
2023/03/29 09:22:24;;;;;;;4.78;2.13;;;10.30;99.90;;;;;;6224932;23;19927;-86
2023/03/29 09:25:25;;;;;;;3.70;2.17;;;10.60;99.90;;;;;;6244033;23;20020;-87
2023/03/29 09:28:13;;;;;;;2.67;1.95;;;11.00;99.90;;;;;;6245671;23;20028;-85
2023/03/29 09:31:04;;;;;;;2.67;1.75;;;11.60;99.90;;;;;;6247166;23;20039;-89
2023/03/29 09:34:16;;;;;;;5.90;1.80;;;12.00;99.90;;;;;;6226953;23;20052;-89
2023/03/29 09:37:20;;;;;;;3.22;1.83;;;11.90;99.90;;;;;;6246354;23;20556;-88
2023/03/29 09:40:19;;;;;;;4.13;1.92;;;11.70;99.70;;;;;;6246174;23;20027;-90
2023/03/29 09:43:14;;;;;;;2.95;1.75;;;11.40;98.20;;;;;;6226027;23;20028;-89
2023/03/29 09:46:14;;;;;;;3.50;1.77;;;11.50;98.40;;;;;;6224270;23;20024;-88
2023/03/29 09:49:09;;;;;;;4.63;2.60;;;11.70;92.60;;;;;;6246382;23;20540;-88
2023/03/29 09:52:05;;;;;;;4.82;1.75;;;11.80;91.20;;;;;;6245831;23;20031;-89
2023/03/29 09:54:52;;;;;;;4.72;1.63;;;11.70;93.20;;;;;;6245383;23;20028;-88
2023/03/29 09:57:45;;;;;;;3.65;1.70;;;11.80;90.50;;;;;;6227513;23;20066;-88
2023/03/29 10:00:32;;;;;;;4.57;1.70;;;11.90;90.40;;;;;;6245128;23;20028;-89
2023/03/29 10:03:26;;;;;;;3.10;2.17;;;12.10;87.10;;;;;;6224970;23;20035;-88
2023/03/29 10:06:13;;;;;;;5.70;1.70;;;12.30;84.30;;;;;;6235743;23;20066;-88
2023/03/29 10:09:03;;;;;;;5.63;1.50;;;12.50;81.20;;;;;;6218865;23;20020;-89
2023/03/29 10:11:54;;;;;;;5.68;1.77;;;13.00;74.40;;;;;;6247617;23;20024;-89
2023/03/29 10:14:51;;;;;;;2.88;1.80;;;13.40;68.00;;;;;;6228882;23;20095;-88
2023/03/29 10:17:41;;;;;;;2.25;1.58;;;13.40;57.60;;;;;;6244425;23;20422;-87
2023/03/29 10:20:29;;;;;;;5.53;2.25;;;13.30;54.60;;;;;;6225391;23;20521;-89
2023/03/29 10:23:17;;;;;;;3.30;1.55;;;13.90;56.90;;;;;;6223815;23;20020;-86
2023/03/29 10:26:08;;;;;;;2.40;1.63;;;14.40;55.50;;;;;;6246975;23;20082;-89
2023/03/29 10:28:59;;;;;;;5.82;2.15;;;14.50;51.90;;;;;;6225812;23;20031;-85
2023/03/29 10:31:48;;;;;;;1.98;1.55;;;14.80;46.60;;;;;;6223863;23;20024;-85
2023/03/29 10:34:36;;;;;;;2.63;1.60;;;14.80;40.70;;;;;;6242089;23;20051;-85
2023/03/29 10:37:31;;;;;;;3.17;1.92;;;15.00;39.50;;;;;;6245633;23;20020;-87
2023/03/29 10:40:24;;;;;;;4.18;1.67;;;15.80;41.90;;;;;;6222239;23;20035;-85
2023/03/29 10:43:33;;;;;;;3.88;1.70;;;16.70;50.10;;;;;;6222162;23;20027;-86
2023/03/29 10:46:29;;;;;;;4.53;1.40;;;16.90;22.70;;;;;;6244258;23;20020;-86
2023/03/29 10:49:19;;;;;;;5.80;2.05;;;15.90;18.40;;;;;;6245193;23;20020;-84
2023/03/29 10:52:08;;;;;;;4.13;1.75;;;15.30;15.80;;;;;;6246732;23;20316;-88
2023/03/29 10:54:58;;;;;;;3.40;1.88;;;14.70;16.50;;;;;;6223502;23;20024;-87
2023/03/29 10:58:01;;;;;;;1.77;1.40;;;14.60;13.80;;;;;;6223416;23;20079;-89
2023/03/29 11:00:54;;;;;;;;;;;14.80;13.70;;;;;;6243350;23;20020;-86
2023/03/29 11:04:02;;;;;;;4.23;1.70;;;15.00;13.70;;;;;;6246410;23;20010;-88
2023/03/29 11:07:04;;;;;;;1.83;1.58;;;15.10;13.00;;;;;;6224931;23;20030;-90
2023/03/29 11:10:01;;;;;;;3.67;1.70;;;15.40;15.20;;;;;;6225194;23;20024;-89
2023/03/29 11:13:21;;;;;;;2.83;1.50;;;16.40;13.80;;;;;;6224142;23;20028;-88
2023/03/29 11:16:20;;;;;;;5.55;1.40;;;17.90;9.20;;;;;;6226763;23;20035;-87
2023/03/29 11:19:23;;;;;;;5.57;1.80;;;17.90;1.00;;;;;;6228286;23;20032;-87
2023/03/29 11:22:20;;;;;;;2.20;1.48;;;17.90;1.00;;;;;;6248163;23;20024;-87
2023/03/29 11:25:22;;;;;;;1.73;1.05;;;17.30;1.00;;;;;;6203917;23;20024;-89
2023/03/29 11:28:42;;;;;;;2.50;1.40;;;16.80;1.00;;;;;;6249900;22;20113;-87
2023/03/29 11:31:56;;;;;;;4.13;1.38;;;16.30;1.00;;;;;;6224995;23;20032;-89
2023/03/29 11:34:53;;;;;;;3.47;1.40;;;16.00;1.00;;;;;;6248991;23;20020;-87
2023/03/29 11:38:06;;;;;;;4.22;1.13;;;15.70;1.00;;;;;;6228776;23;20032;-88
2023/03/29 11:41:17;;;;;;;3.58;1.63;;;15.40;1.00;;;;;;6223917;23;20020;-88
2023/03/29 11:44:23;;;;;;;3.45;1.50;;;15.40;1.00;;;;;;6227137;23;20028;-88
2023/03/29 11:47:15;;;;;;;2.50;1.20;;;15.80;1.00;;;;;;6225213;23;20024;-86
2023/03/29 11:50:22;;;;;;;;;;;16.40;1.00;;;;;;6226075;23;20024;-84
2023/03/29 11:53:21;;;;;;;2.63;1.27;;;16.80;1.00;;;;;;6246077;23;20300;-85
2023/03/29 11:56:22;;;;;;;4.30;1.17;;;16.60;1.00;;;;;;6222276;23;20024;-84
2023/03/29 11:59:26;;;;;;;3.28;1.15;;;16.90;1.00;;;;;;6226280;23;20028;-89
2023/03/29 12:02:30;;;;;;;4.45;1.27;;;15.80;1.00;;;;;;6245788;23;20024;-87
2023/03/29 12:05:32;;;;;;;3.75;1.17;;;15.30;1.00;;;;;;6227495;23;20066;-90
2023/03/29 12:08:32;;;;;;;;;;;15.40;1.00;;;;;;6224770;23;20142;-86
2023/03/29 12:11:38;;;;;;;3.58;1.67;;;15.50;1.00;;;;;;6244905;23;19919;-85
2023/03/29 12:14:39;;;;;;;12.10;9.85;;;15.40;1.00;;;;;;6247395;23;20027;-90
2023/03/29 12:17:31;;;;;;;4.03;1.80;;;15.20;1.00;;;;;;6225346;23;20020;-88
2023/03/29 12:20:30;;;;;;;4.72;1.90;;;15.10;1.00;;;;;;6224575;23;20032;-90
2023/03/29 12:23:20;;;;;;;2.67;1.27;;;15.00;1.00;;;;;;6247114;23;20023;-89
2023/03/29 12:26:24;;;;;;;4.65;1.23;;;14.80;1.00;;;;;;6248975;22;20039;-87
2023/03/29 12:29:30;;;;;;;1.63;1.20;;;14.80;1.00;;;;;;6246842;23;20106;-87
2023/03/29 12:32:31;;;;;;;3.60;1.23;;;14.70;1.00;;;;;;6245939;23;20095;-88
2023/03/29 12:35:45;;;;;;;4.32;1.42;;;14.60;1.00;;;;;;6227115;23;20074;-86
2023/03/29 12:38:34;;;;;;;3.88;1.38;;;14.40;1.00;;;;;;6237730;23;20054;-89
2023/03/29 12:41:23;;;;;;;3.33;1.42;;;14.20;1.00;;;;;;6214597;23;20052;-88
2023/03/29 12:44:19;;;;;;;1.85;1.38;;;13.70;1.00;;;;;;6249406;23;20090;-89
2023/03/29 12:47:25;;;;;;;3.47;1.20;;;14.00;1.00;;;;;;6226920;23;20024;-88
2023/03/29 12:50:27;;;;;;;3.95;1.55;;;14.50;1.00;;;;;;6234434;23;20047;-91
2023/03/29 12:53:33;;;;;;;4.45;1.30;;;14.90;1.00;;;;;;6245172;23;20024;-89
2023/03/29 12:56:55;;;;;;;5.35;2.45;;;15.10;1.00;;;;;;6238348;23;20028;-90
2023/03/29 13:00:17;;;;;;;;;;;;;;;;;;;;;
2023/03/29 13:04:06;;;;;;;6.15;1.65;;;15.30;1.00;;;;;;6262634;23;20047;-89
2023/03/29 13:07:18;;;;;;;3.85;1.60;;;15.30;1.00;;;;;;6233364;23;20446;-88
2023/03/29 13:10:28;;;;;;;5.47;3.22;;;15.00;1.00;;;;;;6251210;23;20039;-89
2023/03/29 13:13:23;;;;;;;3.92;1.65;;;14.90;1.00;;;;;;6236105;23;20028;-91
2023/03/29 13:16:20;;;;;;;4.63;1.73;;;15.10;1.00;;;;;;6229560;23;20101;-86
2023/03/29 13:19:13;;;;;;;4.47;1.20;;;15.10;1.00;;;;;;6245035;23;20055;-85
2023/03/29 13:22:34;;;;;;;3.25;1.58;;;14.90;1.00;;;;;;6246069;23;20050;-84
2023/03/29 13:25:50;;;;;;;7.57;2.03;;;14.70;1.00;;;;;;6225029;23;20035;-87
2023/03/29 13:28:58;;;;;;;6.13;1.80;;;14.50;1.00;;;;;;6243404;23;20023;-86
2023/03/29 13:31:51;;;;;;;5.72;1.23;;;14.20;1.00;;;;;;6224499;23;20043;-92
2023/03/29 13:34:58;;;;;;;5.05;1.60;;;13.90;9.60;;;;;;6248466;23;20032;-90
2023/03/29 13:38:20;;;;;;;4.85;2.10;;;13.50;16.30;;;;;;6228555;23;20035;-89
2023/03/29 13:41:30;;;;;;;5.07;1.70;;;13.00;25.50;;;;;;6229615;23;20396;-91
2023/03/29 13:44:44;;;;;;;5.82;1.52;;;12.90;38.00;;;;;;6249784;23;20283;-89
2023/03/29 13:47:32;;;;;;;6.90;1.70;;;12.90;41.20;;;;;;6224857;23;20038;-89
2023/03/29 13:50:35;;;;;;;3.28;1.40;;;12.90;63.60;;;;;;6225410;23;20028;-87
2023/03/29 13:53:39;;;;;;;3.77;1.77;;;13.20;85.20;;;;;;6225211;23;20031;-89
2023/03/29 13:56:47;;;;;;;4.60;1.60;;;13.40;74.20;;;;;;6247480;23;20491;-87
2023/03/29 13:59:58;;;;;;;5.20;1.98;;;13.50;44.10;;;;;;6227295;23;20035;-91
2023/03/29 14:03:05;;;;;;;;;;;13.60;46.40;;;;;;6229668;23;20031;-92
2023/03/29 14:06:01;;;;;;;2.17;1.38;;;13.70;38.80;;;;;;6225920;23;19915;-87
2023/03/29 14:08:50;;;;;;;7.80;1.67;;;13.90;31.00;;;;;;6233573;23;20343;-86
2023/03/29 14:11:42;;;;;;;4.45;1.70;;;14.00;31.70;;;;;;6257587;23;20075;-85
2023/03/29 14:14:31;;;;;;;7.00;1.55;;;14.10;28.60;;;;;;6235566;23;20028;-86
2023/03/29 14:17:21;;;;;;;3.67;1.40;;;14.20;27.00;;;;;;6236315;23;20047;-87
2023/03/29 14:20:14;;;;;;;5.65;1.48;;;14.40;17.20;;;;;;6261654;22;20024;-85
2023/03/29 14:23:11;;;;;;;5.43;1.50;;;14.50;21.20;;;;;;6236482;22;20020;-85
2023/03/29 14:26:17;;;;;;;2.85;1.30;;;14.70;21.80;;;;;;6239877;22;20040;-89
2023/03/29 14:29:06;;;;;;;;;;;14.80;15.00;;;;;;6233220;23;20028;-89
2023/03/29 14:31:53;;;;;;;2.58;1.20;;;14.70;8.80;;;;;;6231621;23;19916;-86
2023/03/29 14:34:41;;;;;;;4.80;1.60;;;14.90;8.20;;;;;;6229250;23;20048;-90
2023/03/29 14:37:31;;;;;;;6.10;1.48;;;15.10;8.50;;;;;;6230717;23;20024;-91
2023/03/29 14:40:20;;;;;;;4.05;1.50;;;15.30;4.60;;;;;;6224974;23;20028;-90
2023/03/29 14:43:09;;;;;;;2.17;1.30;;;15.60;1.00;;;;;;6219822;23;20087;-90
2023/03/29 14:45:59;;;;;;;1.92;1.50;;;16.20;1.00;;;;;;6220038;23;20024;-90
2023/03/29 14:48:48;;;;;;;4.20;1.63;;;17.10;1.00;;;;;;6218736;23;20025;-90
2023/03/29 14:51:35;;;;;;;3.58;2.10;;;17.30;1.00;;;;;;6217620;23;20281;-86
2023/03/29 14:54:27;;;;;;;2.90;1.30;;;17.00;1.00;;;;;;6217797;23;20036;-86
2023/03/29 14:57:18;;;;;;;3.03;1.73;;;16.70;1.00;;;;;;6219109;23;20032;-84
2023/03/29 15:00:41;;;;;;;4.60;1.77;;;16.00;1.00;;;;;;6218369;23;20025;-85
2023/03/29 15:03:28;;;;;;;3.67;1.02;;;15.80;1.00;;;;;;6214845;23;20107;-88
2023/03/29 15:06:18;;;;;;;3.08;1.52;;;15.90;1.00;;;;;;6213685;23;20028;-86
2023/03/29 15:09:08;;;;;;;3.95;1.30;;;15.80;1.00;;;;;;6215887;23;20028;-87
2023/03/29 15:11:58;;;;;;;6.78;1.40;;;15.70;1.00;;;;;;6216461;23;20031;-90
2023/03/29 15:14:51;;;;;;;7.35;1.38;;;16.20;1.00;;;;;;6213905;23;20028;-87
2023/03/29 15:17:45;;;;;;;6.15;1.58;;;17.40;1.00;;;;;;6215582;23;20320;-84
2023/03/29 15:20:43;;;;;;;3.67;1.70;;;17.30;1.00;;;;;;6216860;23;20035;-89
2023/03/29 15:23:55;;;;;;;3.17;1.88;;;17.80;1.00;;;;;;6219484;23;20055;-88